Time,TemperatureF,DewpointF,PressureIn,WindDirection,WindDirectionDegrees,WindSpeedMPH,WindSpeedGustMPH,Humidity,HourlyPrecipIn,Conditions,Clouds,dailyrainin,SolarRadiationWatts/m^2,SoftwareType,DateUTC
2013-05-11 00:01:00,69.6,65.2,30.05,NE,42,12.7,12.7,86,0.00,CLR,,0.00,0.0,WeatherDisplay:10.37,2013-05-11 10:01:00,
2013-05-11 00:06:00,69.6,64.9,30.05,North,360,15.0,15.0,85,0.00,CLR,,0.00,0.0,WeatherDisplay:10.37,2013-05-11 10:06:00,
2013-05-11 00:11:00,69.7,65.0,30.05,East,80,16.1,16.1,85,0.00,CLR,,0.00,0.0,WeatherDisplay:10.37,2013-05-11 10:11:00,
2013-05-11 00:16:00,69.7,65.0,30.05,NE,36,13.8,13.8,85,0.00,CLR,,0.00,0.0,WeatherDisplay:10.37,2013-05-11 10:16:00,
2013-05-11 00:21:00,69.7,65.0,30.05,NE,50,18.4,18.4,85,0.00,CLR,,0.00,0.0,WeatherDisplay:10.37,2013-05-11 10:21:00,
2013-05-11 00:26:00,69.7,65.0,30.05,NE,49,11.5,11.5,85,0.00,CLR,,0.00,0.0,WeatherDisplay:10.37,2013-05-11 10:26:00,
2013-05-11 00:31:00,69.7,65.0,30.05,ENE,69,15.0,15.0,85,0.00,CLR,,0.00,0.0,WeatherDisplay:10.37,2013-05-11 10:31:00,
2013-05-11 00:36:00,69.6,65.2,30.05,NNE,18,10.4,10.4,86,0.00,CLR,,0.00,0.0,WeatherDisplay:10.37,2013-05-11 10:36:00,
2013-05-11 00:41:00,69.5,65.1,30.04,ENE,77,11.0,11.0,86,0.00,CLR,,0.00,0.0,WeatherDisplay:10.37,2013-05-11 10:41:00,
2013-05-11 00:46:00,69.5,65.1,30.04,North,355,11.5,11.5,86,0.00,CLR,,0.00,0.0,WeatherDisplay:10.37,2013-05-11 10:46:00,
2013-05-11 00:51:00,69.4,65.0,30.04,ENE,69,12.7,12.7,86,0.00,CLR,,0.00,0.0,WeatherDisplay:10.37,2013-05-11 10:51:00,
2013-05-11 00:56:00,69.3,64.9,30.04,NNE,20,8.1,8.1,86,0.00,CLR,,0.00,0.0,WeatherDisplay:10.37,2013-05-11 10:56:00,
2013-05-11 01:01:00,69.2,64.8,30.04,NNE,17,11.5,11.5,86,0.00,CLR,,0.00,0.0,WeatherDisplay:10.37,2013-05-11 11:01:00,
2013-05-11 01:06:00,69.2,64.8,30.03,North,9,10.4,10.4,86,0.00,CLR,,0.00,0.0,WeatherDisplay:10.37,2013-05-11 11:06:00,
2013-05-11 01:11:00,69.2,64.8,30.03,North,360,11.5,11.5,86,0.00,CLR,,0.00,0.0,WeatherDisplay:10.37,2013-05-11 11:11:00,
2013-05-11 01:16:00,69.2,64.8,30.03,NNW,333,9.2,9.2,86,0.00,CLR,,0.00,0.0,WeatherDisplay:10.37,2013-05-11 11:16:00,
2013-05-11 01:21:00,69.2,64.8,30.02,North,355,11.5,11.5,86,0.00,CLR,,0.00,0.0,WeatherDisplay:10.37,2013-05-11 11:21:00,
2013-05-11 01:26:00,69.1,64.7,30.02,East,88,11.5,11.5,86,0.00,CLR,,0.00,0.0,WeatherDisplay:10.37,2013-05-11 11:26:00,
2013-05-11 01:31:00,69.0,64.6,30.02,North,360,11.5,11.5,86,0.00,CLR,,0.00,0.0,WeatherDisplay:10.37,2013-05-11 11:31:00,
2013-05-11 01:36:00,69.0,64.6,30.02,North,5,10.4,10.4,86,0.00,CLR,,0.00,0.0,WeatherDisplay:10.37,2013-05-11 11:36:00,
2013-05-11 01:41:00,68.9,64.5,30.02,NE,41,8.1,8.1,86,0.00,CLR,,0.00,0.0,WeatherDisplay:10.37,2013-05-11 11:41:00,
2013-05-11 01:46:00,68.9,64.5,30.02,NE,48,12.7,12.7,86,0.00,CLR,,0.00,0.0,WeatherDisplay:10.37,2013-05-11 11:46:00,
2013-05-11 01:51:00,68.9,64.5,30.02,ENE,57,12.7,12.7,86,0.00,CLR,,0.00,0.0,WeatherDisplay:10.37,2013-05-11 11:51:00,
2013-05-11 01:56:00,68.9,64.5,30.02,ENE,69,11.5,11.5,86,0.00,CLR,,0.00,0.0,WeatherDisplay:10.37,2013-05-11 11:56:00,
2013-05-11 02:01:00,68.9,64.5,30.01,ENE,65,12.7,12.7,86,0.00,CLR,,0.00,0.0,WeatherDisplay:10.37,2013-05-11 12:01:00,
2013-05-11 02:06:00,68.9,64.5,30.01,NNE,17,8.0,8.0,86,0.00,CLR,,0.00,0.0,WeatherDisplay:10.37,2013-05-11 12:06:00,
2013-05-11 02:11:00,68.8,64.4,30.01,NNE,30,10.0,10.0,86,0.00,CLR,,0.00,0.0,WeatherDisplay:10.37,2013-05-11 12:11:00,
2013-05-11 02:16:00,68.8,64.4,30.01,ENE,76,11.5,11.5,86,0.00,CLR,,0.00,0.0,WeatherDisplay:10.37,2013-05-11 12:16:00,
2013-05-11 02:21:00,68.9,64.5,30.01,ENE,76,11.5,11.5,86,0.00,CLR,,0.00,0.0,WeatherDisplay:10.37,2013-05-11 12:21:00,
2013-05-11 02:26:00,68.8,64.4,30.01,East,88,9.2,9.2,86,0.00,CLR,,0.00,0.0,WeatherDisplay:10.37,2013-05-11 12:26:00,
2013-05-11 02:31:00,68.8,64.4,30.00,North,355,13.0,13.0,86,0.00,CLR,,0.00,0.0,WeatherDisplay:10.37,2013-05-11 12:31:00,
2013-05-11 02:36:00,68.8,64.4,30.00,NNW,348,10.4,10.4,86,0.00,CLR,,0.00,0.0,WeatherDisplay:10.37,2013-05-11 12:36:00,
2013-05-11 02:41:00,68.8,64.4,30.00,NNE,13,13.8,13.8,86,0.00,CLR,,0.00,0.0,WeatherDisplay:10.37,2013-05-11 12:41:00,
2013-05-11 02:46:00,68.8,64.4,30.00,ENE,70,13.8,13.8,86,0.00,CLR,,0.00,0.0,WeatherDisplay:10.37,2013-05-11 12:46:00,
2013-05-11 02:51:00,68.8,64.4,30.00,North,5,10.4,10.4,86,0.00,CLR,,0.00,0.0,WeatherDisplay:10.37,2013-05-11 12:51:00,
2013-05-11 02:56:00,68.8,64.4,30.00,NNW,347,10.4,10.4,86,0.00,CLR,,0.00,0.0,WeatherDisplay:10.37,2013-05-11 12:56:00,
2013-05-11 03:01:00,68.8,64.4,30.00,North,5,13.0,13.0,86,0.00,CLR,,0.00,0.0,WeatherDisplay:10.37,2013-05-11 13:01:00,
2013-05-11 03:06:00,68.7,64.3,30.00,NNW,347,10.4,10.4,86,0.00,CLR,,0.00,0.0,WeatherDisplay:10.37,2013-05-11 13:06:00,
2013-05-11 03:11:00,68.7,64.3,30.00,NNW,334,13.8,13.8,86,0.00,CLR,,0.00,0.0,WeatherDisplay:10.37,2013-05-11 13:11:00,
2013-05-11 03:16:00,68.6,64.2,30.00,NNE,32,11.5,11.5,86,0.00,CLR,,0.00,0.0,WeatherDisplay:10.37,2013-05-11 13:16:00,
2013-05-11 03:21:00,68.7,64.3,30.00,NNW,342,16.1,16.1,86,0.00,CLR,,0.00,0.0,WeatherDisplay:10.37,2013-05-11 13:21:00,
2013-05-11 03:26:00,68.7,64.3,30.00,ENE,71,10.4,10.4,86,0.00,CLR,,0.00,0.0,WeatherDisplay:10.37,2013-05-11 13:26:00,
2013-05-11 03:31:00,68.8,64.4,30.00,North,5,8.1,8.1,86,0.00,CLR,,0.00,0.0,WeatherDisplay:10.37,2013-05-11 13:31:00,
2013-05-11 03:36:00,68.8,64.1,30.00,ENE,63,11.5,11.5,85,0.00,CLR,,0.00,0.0,WeatherDisplay:10.37,2013-05-11 13:36:00,
2013-05-11 03:41:00,68.8,64.1,30.00,NNE,19,11.5,11.5,85,0.00,CLR,,0.00,0.0,WeatherDisplay:10.37,2013-05-11 13:41:00,
2013-05-11 03:46:00,68.7,64.0,30.00,NNE,22,9.2,9.2,85,0.00,CLR,,0.00,0.0,WeatherDisplay:10.37,2013-05-11 13:46:00,
2013-05-11 03:51:00,68.7,64.0,30.00,NE,50,5.8,7.5,85,0.00,CLR,,0.00,0.0,WeatherDisplay:10.37,2013-05-11 13:51:00,
2013-05-11 03:56:00,68.7,64.0,30.00,NNE,30,13.0,13.0,85,0.00,CLR,,0.00,0.0,WeatherDisplay:10.37,2013-05-11 13:56:00,
2013-05-11 04:01:00,68.8,64.1,30.00,NNW,344,11.5,11.5,85,0.00,CLR,,0.00,0.0,WeatherDisplay:10.37,2013-05-11 14:01:00,
2013-05-11 04:06:00,68.8,64.1,30.00,NNE,22,10.4,10.4,85,0.00,CLR,,0.00,0.0,WeatherDisplay:10.37,2013-05-11 14:06:00,
2013-05-11 04:11:00,68.8,64.1,30.00,NNW,340,10.4,10.4,85,0.00,CLR,,0.00,0.0,WeatherDisplay:10.37,2013-05-11 14:11:00,
2013-05-11 04:16:00,68.8,64.1,30.00,North,5,7.0,7.0,85,0.00,CLR,,0.00,0.0,WeatherDisplay:10.37,2013-05-11 14:16:00,
2013-05-11 04:21:00,68.7,64.0,30.00,North,350,13.8,13.8,85,0.00,CLR,,0.00,0.0,WeatherDisplay:10.37,2013-05-11 14:21:00,
2013-05-11 04:26:00,68.8,64.1,30.00,NE,35,11.0,11.0,85,0.00,CLR,,0.00,0.0,WeatherDisplay:10.37,2013-05-11 14:26:00,
2013-05-11 04:31:00,68.8,64.1,30.00,North,5,9.2,9.2,85,0.00,CLR,,0.00,0.0,WeatherDisplay:10.37,2013-05-11 14:31:00,
2013-05-11 04:36:00,68.8,64.1,30.00,North,355,12.7,12.7,85,0.00,CLR,,0.00,0.0,WeatherDisplay:10.37,2013-05-11 14:36:00,
2013-05-11 04:41:00,68.8,64.1,29.99,ENE,70,15.0,15.0,85,0.00,CLR,,0.00,0.0,WeatherDisplay:10.37,2013-05-11 14:41:00,
2013-05-11 04:46:00,68.8,64.1,30.00,NNW,327,12.7,12.7,85,0.00,CLR,,0.00,0.0,WeatherDisplay:10.37,2013-05-11 14:46:00,
2013-05-11 04:51:00,68.9,64.2,30.00,North,11,11.5,11.5,85,0.00,CLR,,0.00,0.0,WeatherDisplay:10.37,2013-05-11 14:51:00,
2013-05-11 04:56:00,68.8,63.8,30.00,ESE,113,9.2,9.2,84,0.00,CLR,,0.00,0.0,WeatherDisplay:10.37,2013-05-11 14:56:00,
2013-05-11 05:01:00,68.9,63.9,30.00,NW,325,13.8,13.8,84,0.00,CLR,,0.00,0.0,WeatherDisplay:10.37,2013-05-11 15:01:00,
2013-05-11 05:06:00,69.0,64.0,30.00,North,5,11.5,11.5,84,0.00,CLR,,0.00,0.0,WeatherDisplay:10.37,2013-05-11 15:06:00,
2013-05-11 05:11:00,69.1,64.1,30.00,NNE,26,11.5,11.5,84,0.00,CLR,,0.00,0.0,WeatherDisplay:10.37,2013-05-11 15:11:00,
2013-05-11 05:16:00,69.2,64.5,30.00,NNW,327,11.5,11.5,85,0.00,CLR,,0.00,0.0,WeatherDisplay:10.37,2013-05-11 15:16:00,
2013-05-11 05:21:00,69.2,64.5,30.00,NNW,340,11.5,11.5,85,0.00,CLR,,0.00,0.0,WeatherDisplay:10.37,2013-05-11 15:21:00,
2013-05-11 05:26:00,69.3,64.6,30.00,NNW,339,11.5,11.5,85,0.00,CLR,,0.00,0.0,WeatherDisplay:10.37,2013-05-11 15:26:00,
2013-05-11 05:31:00,69.3,64.6,30.01,ENE,63,13.8,13.8,85,0.00,CLR,,0.00,0.0,WeatherDisplay:10.37,2013-05-11 15:31:00,
2013-05-11 05:36:00,69.3,64.6,30.01,NNE,25,12.7,12.7,85,0.00,CLR,,0.00,0.0,WeatherDisplay:10.37,2013-05-11 15:36:00,
2013-05-11 05:41:00,69.3,64.6,30.01,NE,55,10.4,10.4,85,0.00,CLR,,0.00,0.0,WeatherDisplay:10.37,2013-05-11 15:41:00,
2013-05-11 05:46:00,69.3,64.6,30.01,NNE,28,7.0,7.0,85,0.00,CLR,,0.00,0.0,WeatherDisplay:10.37,2013-05-11 15:46:00,
2013-05-11 05:51:00,69.3,64.3,30.01,NE,34,10.4,10.4,84,0.00,CLR,,0.00,0.0,WeatherDisplay:10.37,2013-05-11 15:51:00,
2013-05-11 05:56:00,69.4,64.4,30.01,NE,38,16.1,16.1,84,0.00,CLR,,0.00,0.0,WeatherDisplay:10.37,2013-05-11 15:56:00,
2013-05-11 06:01:00,69.3,64.3,30.01,North,355,10.4,10.4,84,0.00,SCT,,0.00,5.0,WeatherDisplay:10.37,2013-05-11 16:01:00,
2013-05-11 06:06:00,69.3,64.3,30.01,ENE,60,17.3,17.3,84,0.00,BKN,,0.00,11.0,WeatherDisplay:10.37,2013-05-11 16:06:00,
2013-05-11 06:11:00,69.2,64.2,30.01,North,360,11.5,11.5,84,0.00,BKN,,0.00,14.0,WeatherDisplay:10.37,2013-05-11 16:11:00,
2013-05-11 06:16:00,69.2,64.2,30.01,North,5,10.4,10.4,84,0.00,BKN,,0.00,21.0,WeatherDisplay:10.37,2013-05-11 16:16:00,
2013-05-11 06:21:00,69.1,64.1,30.01,NE,34,13.8,13.8,84,0.00,BKN,,0.00,25.0,WeatherDisplay:10.37,2013-05-11 16:21:00,
2013-05-11 06:26:00,69.1,64.1,30.01,NNW,342,12.0,12.0,84,0.00,BKN,,0.00,28.0,WeatherDisplay:10.37,2013-05-11 16:26:00,
2013-05-11 06:31:00,69.1,64.1,30.01,ENE,59,9.2,9.2,84,0.00,BKN,,0.00,30.0,WeatherDisplay:10.37,2013-05-11 16:31:00,
2013-05-11 06:36:00,69.1,64.1,30.01,North,350,10.4,10.4,84,0.00,BKN,,0.00,32.0,WeatherDisplay:10.37,2013-05-11 16:36:00,
2013-05-11 06:41:00,69.2,64.2,30.02,NNE,21,11.5,11.5,84,0.00,CLR,,0.00,35.0,WeatherDisplay:10.37,2013-05-11 16:41:00,
2013-05-11 06:46:00,69.3,64.3,30.02,North,355,11.5,11.5,84,0.00,CLR,,0.00,123.0,WeatherDisplay:10.37,2013-05-11 16:46:00,
2013-05-11 06:51:00,69.4,64.4,30.02,ENE,74,11.5,11.5,84,0.00,CLR,,0.00,127.0,WeatherDisplay:10.37,2013-05-11 16:51:00,
2013-05-11 06:56:00,69.7,64.3,30.02,NE,36,13.8,13.8,83,0.00,CLR,,0.00,162.0,WeatherDisplay:10.37,2013-05-11 16:56:00,
2013-05-11 07:01:00,69.9,64.5,30.03,North,355,12.7,12.7,83,0.00,CLR,,0.00,183.0,WeatherDisplay:10.37,2013-05-11 17:01:00,
2013-05-11 07:06:00,70.0,64.6,30.02,NNE,17,11.5,11.5,83,0.00,CLR,,0.00,207.0,WeatherDisplay:10.37,2013-05-11 17:06:00,
2013-05-11 07:11:00,70.2,64.4,30.03,NNW,331,13.8,13.8,82,0.00,CLR,,0.00,227.0,WeatherDisplay:10.37,2013-05-11 17:11:00,
2013-05-11 07:16:00,70.3,64.5,30.03,NNE,13,12.7,12.7,82,0.00,CLR,,0.00,250.0,WeatherDisplay:10.37,2013-05-11 17:16:00,
2013-05-11 07:21:00,70.5,64.7,30.03,NE,37,15.0,15.0,82,0.00,CLR,,0.00,262.0,WeatherDisplay:10.37,2013-05-11 17:21:00,
2013-05-11 07:26:00,70.5,64.7,30.03,North,9,16.1,16.1,82,0.00,CLR,,0.00,281.0,WeatherDisplay:10.37,2013-05-11 17:26:00,
2013-05-11 07:31:00,70.6,64.5,30.03,ENE,58,13.8,13.8,81,0.00,CLR,,0.00,295.0,WeatherDisplay:10.37,2013-05-11 17:31:00,
2013-05-11 07:36:00,70.8,64.7,30.03,North,5,11.5,11.5,81,0.00,CLR,,0.00,316.0,WeatherDisplay:10.37,2013-05-11 17:36:00,
2013-05-11 07:41:00,71.0,64.9,30.03,NNE,13,12.0,12.0,81,0.00,CLR,,0.00,327.0,WeatherDisplay:10.37,2013-05-11 17:41:00,
2013-05-11 07:46:00,71.2,65.1,30.03,NNW,336,10.4,10.4,81,0.00,CLR,,0.00,373.0,WeatherDisplay:10.37,2013-05-11 17:46:00,
2013-05-11 07:51:00,71.4,64.9,30.03,NNE,17,9.2,9.2,80,0.00,CLR,,0.00,373.0,WeatherDisplay:10.37,2013-05-11 17:51:00,
2013-05-11 07:56:00,71.6,65.1,30.03,NE,49,9.2,9.2,80,0.00,CLR,,0.00,394.0,WeatherDisplay:10.37,2013-05-11 17:56:00,
2013-05-11 08:01:00,71.7,64.8,30.03,NNE,24,11.5,11.5,79,0.00,CLR,,0.00,410.0,WeatherDisplay:10.37,2013-05-11 18:01:00,
2013-05-11 08:06:00,71.8,64.9,30.03,North,9,15.0,15.0,79,0.00,CLR,,0.00,429.0,WeatherDisplay:10.37,2013-05-11 18:06:00,
2013-05-11 08:11:00,71.8,64.9,30.04,NNE,23,9.2,9.2,79,0.00,CLR,,0.00,443.0,WeatherDisplay:10.37,2013-05-11 18:11:00,
2013-05-11 08:16:00,71.9,65.0,30.03,NNE,28,11.5,11.5,79,0.00,CLR,,0.00,469.0,WeatherDisplay:10.37,2013-05-11 18:16:00,
2013-05-11 08:21:00,72.0,65.1,30.03,ENE,74,11.0,11.0,79,0.00,CLR,,0.00,485.0,WeatherDisplay:10.37,2013-05-11 18:21:00,
2013-05-11 08:26:00,72.3,65.4,30.04,NE,44,11.5,11.5,79,0.00,CLR,,0.00,503.0,WeatherDisplay:10.37,2013-05-11 18:26:00,
2013-05-11 08:31:00,72.4,65.5,30.04,North,360,9.2,9.2,79,0.00,CLR,,0.00,524.0,WeatherDisplay:10.37,2013-05-11 18:31:00,
2013-05-11 08:36:00,72.5,65.2,30.04,NE,45,15.0,15.0,78,0.00,CLR,,0.00,538.0,WeatherDisplay:10.37,2013-05-11 18:36:00,
2013-05-11 08:41:00,72.6,65.3,30.04,ENE,59,14.0,14.0,78,0.00,CLR,,0.00,563.0,WeatherDisplay:10.37,2013-05-11 18:41:00,
2013-05-11 08:46:00,72.8,65.5,30.04,NNE,12,11.5,11.5,78,0.00,CLR,,0.00,578.0,WeatherDisplay:10.37,2013-05-11 18:46:00,
2013-05-11 08:51:00,73.0,65.4,30.05,NNW,340,12.0,12.0,77,0.00,CLR,,0.00,603.0,WeatherDisplay:10.37,2013-05-11 18:51:00,
2013-05-11 08:56:00,73.2,65.6,30.04,North,5,9.2,9.2,77,0.00,CLR,,0.00,615.0,WeatherDisplay:10.37,2013-05-11 18:56:00,
2013-05-11 09:01:00,73.5,65.5,30.04,NNW,342,9.2,9.2,76,0.00,CLR,,0.00,643.0,WeatherDisplay:10.37,2013-05-11 19:01:00,
2013-05-11 09:06:00,73.9,65.9,30.04,ENE,61,9.2,9.2,76,0.00,CLR,,0.00,650.0,WeatherDisplay:10.37,2013-05-11 19:06:00,
2013-05-11 09:11:00,74.0,65.6,30.04,NE,54,11.5,11.5,75,0.00,CLR,,0.00,664.0,WeatherDisplay:10.37,2013-05-11 19:11:00,
2013-05-11 09:16:00,74.1,65.3,30.04,North,11,9.2,9.2,74,0.00,CLR,,0.00,694.0,WeatherDisplay:10.37,2013-05-11 19:16:00,
2013-05-11 09:21:00,74.3,65.5,30.04,NNW,340,10.4,10.4,74,0.00,CLR,,0.00,696.0,WeatherDisplay:10.37,2013-05-11 19:21:00,
2013-05-11 09:26:00,74.7,65.9,30.04,NE,42,6.9,6.9,74,0.00,CLR,,0.00,737.0,WeatherDisplay:10.37,2013-05-11 19:26:00,
2013-05-11 09:31:00,75.0,65.8,30.04,NE,53,9.2,9.2,73,0.00,CLR,,0.00,729.0,WeatherDisplay:10.37,2013-05-11 19:31:00,
2013-05-11 09:36:00,75.2,65.6,30.04,NNW,337,9.2,9.2,72,0.00,CLR,,0.00,745.0,WeatherDisplay:10.37,2013-05-11 19:36:00,
2013-05-11 09:41:00,75.5,65.8,30.04,ENE,69,8.1,8.1,72,0.00,CLR,,0.00,756.0,WeatherDisplay:10.37,2013-05-11 19:41:00,
2013-05-11 09:46:00,75.8,66.1,30.04,NNE,32,7.0,7.0,72,0.00,CLR,,0.00,782.0,WeatherDisplay:10.37,2013-05-11 19:46:00,
2013-05-11 09:51:00,75.9,65.8,30.04,North,11,11.5,11.5,71,0.00,CLR,,0.00,796.0,WeatherDisplay:10.37,2013-05-11 19:51:00,
2013-05-11 09:56:00,76.1,66.4,30.05,NE,49,11.5,11.5,72,0.00,CLR,,0.00,809.0,WeatherDisplay:10.37,2013-05-11 19:56:00,
2013-05-11 10:01:00,76.4,66.7,30.04,NE,41,6.9,6.9,72,0.00,CLR,,0.00,828.0,WeatherDisplay:10.37,2013-05-11 20:01:00,
2013-05-11 10:06:00,76.9,66.8,30.04,East,80,4.6,4.6,71,0.00,CLR,,0.00,870.0,WeatherDisplay:10.37,2013-05-11 20:06:00,
2013-05-11 10:11:00,77.1,66.1,30.04,NNE,17,10.4,10.4,69,0.00,CLR,,0.00,868.0,WeatherDisplay:10.37,2013-05-11 20:11:00,
2013-05-11 10:16:00,77.4,66.4,30.04,NNE,27,9.2,9.2,69,0.00,CLR,,0.00,965.0,WeatherDisplay:10.37,2013-05-11 20:16:00,
2013-05-11 10:21:00,77.4,66.4,30.04,ENE,65,6.9,6.9,69,0.00,CLR,,0.00,923.0,WeatherDisplay:10.37,2013-05-11 20:21:00,
2013-05-11 10:26:00,77.7,66.7,30.04,NE,53,8.1,8.1,69,0.00,CLR,,0.00,930.0,WeatherDisplay:10.37,2013-05-11 20:26:00,
2013-05-11 10:31:00,77.8,66.4,30.05,North,349,9.0,9.0,68,0.00,CLR,,0.00,997.0,WeatherDisplay:10.37,2013-05-11 20:31:00,
2013-05-11 10:36:00,77.9,66.9,30.04,NE,50,3.5,3.5,69,0.00,CLR,,0.00,1002.0,WeatherDisplay:10.37,2013-05-11 20:36:00,
2013-05-11 10:41:00,78.3,67.3,30.04,NNE,31,12.7,12.7,69,0.00,CLR,,0.00,983.0,WeatherDisplay:10.37,2013-05-11 20:41:00,
2013-05-11 10:46:00,78.0,66.6,30.04,ENE,66,9.2,9.2,68,0.00,BKN,,0.00,1076.0,WeatherDisplay:10.37,2013-05-11 20:46:00,
2013-05-11 10:51:00,77.6,66.6,30.04,North,9,9.2,9.2,69,0.00,CLR,,0.00,1039.0,WeatherDisplay:10.37,2013-05-11 20:51:00,
2013-05-11 10:56:00,77.2,66.2,30.04,ENE,65,5.0,5.5,69,0.00,BKN,,0.00,348.0,WeatherDisplay:10.37,2013-05-11 20:56:00,
2013-05-11 11:01:00,76.8,66.3,30.04,North,355,10.4,10.4,70,0.00,CLR,,0.00,1178.0,WeatherDisplay:10.37,2013-05-11 21:01:00,
2013-05-11 11:06:00,77.3,66.7,30.03,ENE,66,10.4,10.4,70,0.00,CLR,,0.00,1218.0,WeatherDisplay:10.37,2013-05-11 21:06:00,
2013-05-11 11:11:00,77.8,67.2,30.03,NE,51,6.9,6.9,70,0.00,CLR,,0.00,1134.0,WeatherDisplay:10.37,2013-05-11 21:11:00,
2013-05-11 11:16:00,78.2,66.8,30.03,NE,55,6.9,6.9,68,0.00,SCT,,0.00,547.0,WeatherDisplay:10.37,2013-05-11 21:16:00,
2013-05-11 11:21:00,78.4,67.0,30.03,North,360,6.9,6.9,68,0.00,CLR,,0.00,1338.0,WeatherDisplay:10.37,2013-05-11 21:21:00,
2013-05-11 11:26:00,79.0,67.5,30.03,NNE,19,9.2,9.2,68,0.00,CLR,,0.00,1053.0,WeatherDisplay:10.37,2013-05-11 21:26:00,
2013-05-11 11:31:00,79.4,67.0,30.03,ENE,67,6.9,6.9,66,0.00,CLR,,0.00,1185.0,WeatherDisplay:10.37,2013-05-11 21:31:00,
2013-05-11 11:36:00,79.4,67.0,30.03,ENE,67,5.8,5.8,66,0.00,CLR,,0.00,541.0,WeatherDisplay:10.37,2013-05-11 21:36:00,
2013-05-11 11:41:00,79.2,67.3,30.03,NE,40,6.9,6.9,67,0.00,SCT,,0.00,515.0,WeatherDisplay:10.37,2013-05-11 21:41:00,
2013-05-11 11:46:00,79.2,67.3,30.03,NE,42,6.9,6.9,67,0.00,CLR,,0.00,1331.0,WeatherDisplay:10.37,2013-05-11 21:46:00,
2013-05-11 11:51:00,79.2,67.3,30.03,ENE,59,10.4,10.4,67,0.00,CLR,,0.00,554.0,WeatherDisplay:10.37,2013-05-11 21:51:00,
2013-05-11 11:56:00,79.0,67.1,30.03,NE,56,9.2,9.2,67,0.00,CLR,,0.00,1345.0,WeatherDisplay:10.37,2013-05-11 21:56:00,
2013-05-11 12:01:00,79.1,67.2,30.03,NE,54,10.4,10.4,67,0.00,CLR,,0.00,1267.0,WeatherDisplay:10.37,2013-05-11 22:01:00,
2013-05-11 12:06:00,79.1,67.2,30.03,ENE,61,8.1,8.1,67,0.00,SCT,,0.00,615.0,WeatherDisplay:10.37,2013-05-11 22:06:00,
2013-05-11 12:11:00,78.9,67.0,30.02,NE,34,10.4,10.4,67,0.00,CLR,,0.00,1288.0,WeatherDisplay:10.37,2013-05-11 22:11:00,
2013-05-11 12:16:00,78.6,66.7,30.02,NE,47,10.4,10.4,67,0.00,CLR,,0.00,1211.0,WeatherDisplay:10.37,2013-05-11 22:16:00,
2013-05-11 12:21:00,78.8,67.3,30.02,ENE,70,8.1,8.1,68,0.00,CLR,,0.00,1352.0,WeatherDisplay:10.37,2013-05-11 22:21:00,
2013-05-11 12:26:00,79.1,67.2,30.02,ENE,78,8.1,8.1,67,0.00,SCT,,0.00,633.0,WeatherDisplay:10.37,2013-05-11 22:26:00,
2013-05-11 12:31:00,79.1,66.8,30.02,NE,39,5.8,5.8,66,0.00,BKN,,0.00,468.0,WeatherDisplay:10.37,2013-05-11 22:31:00,
2013-05-11 12:36:00,79.0,67.1,30.02,North,5,8.1,8.1,67,0.00,CLR,,0.00,1303.0,WeatherDisplay:10.37,2013-05-11 22:36:00,
2013-05-11 12:41:00,79.0,66.7,30.01,East,89,9.2,9.2,66,0.00,CLR,,0.00,1303.0,WeatherDisplay:10.37,2013-05-11 22:41:00,
2013-05-11 12:46:00,78.9,67.0,30.01,NE,50,5.8,5.8,67,0.00,BKN,,0.00,1339.0,WeatherDisplay:10.37,2013-05-11 22:46:00,
2013-05-11 12:51:00,78.9,66.6,30.01,North,9,6.9,6.9,66,0.00,BKN,,0.00,489.0,WeatherDisplay:10.37,2013-05-11 22:51:00,
2013-05-11 12:56:00,78.7,66.4,30.01,East,93,8.1,8.1,66,0.00,SCT,,0.00,526.0,WeatherDisplay:10.37,2013-05-11 22:56:00,
2013-05-11 13:01:00,78.6,66.7,30.01,NNE,25,10.0,10.0,67,0.00,SCT,,0.00,594.0,WeatherDisplay:10.37,2013-05-11 23:01:00,
2013-05-11 13:06:00,78.7,66.8,30.01,NNE,17,5.8,5.8,67,0.00,SCT,,0.00,519.0,WeatherDisplay:10.37,2013-05-11 23:06:00,
2013-05-11 13:11:00,78.8,66.5,30.00,ENE,61,8.0,8.0,66,0.00,BKN,,0.00,427.0,WeatherDisplay:10.37,2013-05-11 23:11:00,
2013-05-11 13:16:00,78.8,66.5,30.00,NE,38,5.8,5.8,66,0.00,BKN,,0.00,450.0,WeatherDisplay:10.37,2013-05-11 23:16:00,
2013-05-11 13:21:00,78.5,66.2,30.00,ENE,72,9.2,9.2,66,0.00,BKN,,0.00,471.0,WeatherDisplay:10.37,2013-05-11 23:21:00,
2013-05-11 13:26:00,78.4,66.5,30.00,NNE,32,3.5,3.5,67,0.00,BKN,,0.00,471.0,WeatherDisplay:10.37,2013-05-11 23:26:00,
2013-05-11 13:31:00,78.8,66.5,30.00,East,90,5.8,5.8,66,0.00,BKN,,0.00,388.0,WeatherDisplay:10.37,2013-05-11 23:31:00,
2013-05-11 13:36:00,78.9,66.6,30.00,NE,36,8.0,8.0,66,0.00,BKN,,0.00,429.0,WeatherDisplay:10.37,2013-05-11 23:36:00,
2013-05-11 13:41:00,78.8,66.0,30.00,ENE,75,10.4,10.4,65,0.00,BKN,,0.00,387.0,WeatherDisplay:10.37,2013-05-11 23:41:00,
2013-05-11 13:46:00,78.3,66.0,30.00,NNW,337,8.1,8.1,66,0.00,BKN,,0.00,339.0,WeatherDisplay:10.37,2013-05-11 23:46:00,
2013-05-11 13:51:00,77.9,66.1,29.99,NNW,334,8.1,8.1,67,0.00,SCT,,0.00,540.0,WeatherDisplay:10.37,2013-05-11 23:51:00,
2013-05-11 13:56:00,77.9,66.5,29.99,NE,53,8.1,8.1,68,0.00,BKN,,0.00,406.0,WeatherDisplay:10.37,2013-05-11 23:56:00,
2013-05-11 14:01:00,78.0,66.6,29.99,NNE,17,4.6,4.6,68,0.00,BKN,,0.00,353.0,WeatherDisplay:10.37,2013-05-12 00:01:00,
2013-05-11 14:06:00,78.0,66.6,29.99,NNE,17,8.1,8.1,68,0.00,FEW,,0.00,610.0,WeatherDisplay:10.37,2013-05-12 00:06:00,
2013-05-11 14:11:00,77.8,66.0,29.99,NNE,16,8.1,8.1,67,0.00,BKN,,0.00,355.0,WeatherDisplay:10.37,2013-05-12 00:11:00,
2013-05-11 14:16:00,77.5,66.1,29.99,NE,37,6.0,6.0,68,0.00,BKN,,0.00,489.0,WeatherDisplay:10.37,2013-05-12 00:16:00,
2013-05-11 14:21:00,77.5,66.1,29.99,ENE,74,8.0,8.0,68,0.00,CLR,,0.00,1146.0,WeatherDisplay:10.37,2013-05-12 00:21:00,
2013-05-11 14:26:00,77.4,66.0,29.99,NNW,348,4.6,4.6,68,0.00,BKN,,0.00,404.0,WeatherDisplay:10.37,2013-05-12 00:26:00,
2013-05-11 14:31:00,77.4,65.6,29.98,ENE,65,11.5,11.5,67,0.00,BKN,,0.00,376.0,WeatherDisplay:10.37,2013-05-12 00:31:00,
2013-05-11 14:36:00,77.2,66.2,29.98,NNE,28,10.4,10.4,69,0.00,BKN,,0.00,334.0,WeatherDisplay:10.37,2013-05-12 00:36:00,
2013-05-11 14:42:00,77.0,66.0,29.98,NE,38,10.0,10.0,69,0.00,BKN,,0.00,311.0,WeatherDisplay:10.37,2013-05-12 00:42:00,
2013-05-11 14:46:00,76.7,65.3,29.99,NNW,338,9.2,9.2,68,0.00,OVC,,0.00,267.0,WeatherDisplay:10.37,2013-05-12 00:46:00,
2013-05-11 14:52:00,76.5,65.6,29.98,NNE,29,5.8,5.8,69,0.00,BKN,,0.00,302.0,WeatherDisplay:10.37,2013-05-12 00:52:00,
2013-05-11 14:57:00,76.5,66.0,29.98,ENE,76,9.2,9.2,70,0.00,BKN,,0.00,301.0,WeatherDisplay:10.37,2013-05-12 00:57:00,
2013-05-11 15:02:00,76.4,65.9,29.98,NNW,340,6.9,6.9,70,0.00,BKN,,0.00,385.0,WeatherDisplay:10.37,2013-05-12 01:02:00,
2013-05-11 15:07:00,76.5,66.0,29.98,NW,308,6.0,6.0,70,0.00,BKN,,0.00,348.0,WeatherDisplay:10.37,2013-05-12 01:07:00,
2013-05-11 15:12:00,76.3,65.8,29.98,NNW,342,10.4,10.4,70,0.00,BKN,,0.00,287.0,WeatherDisplay:10.37,2013-05-12 01:12:00,
2013-05-11 15:17:00,76.1,65.6,29.97,NNW,330,11.5,11.5,70,0.00,BKN,,0.00,302.0,WeatherDisplay:10.37,2013-05-12 01:17:00,
2013-05-11 15:22:00,75.9,65.4,29.98,NNE,16,11.5,11.5,70,0.00,SCT,,0.00,325.0,WeatherDisplay:10.37,2013-05-12 01:22:00,
2013-05-11 15:27:00,75.8,65.3,29.97,North,350,11.5,11.5,70,0.00,OVC,,0.00,207.0,WeatherDisplay:10.37,2013-05-12 01:27:00,
2013-05-11 15:32:00,75.7,65.6,29.97,NNW,334,7.0,7.0,71,0.00,OVC,,0.00,216.0,WeatherDisplay:10.37,2013-05-12 01:32:00,
2013-05-11 15:37:00,75.4,64.9,29.98,NE,45,15.0,15.0,70,0.00,OVC,,0.00,195.0,WeatherDisplay:10.37,2013-05-12 01:37:00,
2013-05-11 15:42:00,75.2,65.6,29.98,NW,321,6.9,6.9,72,0.00,BKN,,0.00,225.0,WeatherDisplay:10.37,2013-05-12 01:42:00,
2013-05-11 15:47:00,75.1,65.5,29.98,NNE,15,11.5,11.5,72,0.00,BKN,,0.00,279.0,WeatherDisplay:10.37,2013-05-12 01:47:00,
2013-05-11 15:52:00,75.1,65.5,29.98,NNE,29,10.4,10.4,72,0.00,BKN,,0.00,279.0,WeatherDisplay:10.37,2013-05-12 01:52:00,
2013-05-11 15:57:00,75.1,65.5,29.98,North,355,10.4,10.4,72,0.00,BKN,,0.00,260.0,WeatherDisplay:10.37,2013-05-12 01:57:00,
2013-05-11 16:02:00,75.0,65.4,29.98,NNW,346,11.5,11.5,72,0.00,BKN,,0.00,213.0,WeatherDisplay:10.37,2013-05-12 02:02:00,
2013-05-11 16:07:00,75.1,65.9,29.98,NNE,14,9.2,9.2,73,0.00,BKN,,0.00,179.0,WeatherDisplay:10.37,2013-05-12 02:07:00,
2013-05-11 16:12:00,74.9,66.1,29.98,ENE,67,13.8,13.8,74,0.00,BKN,,0.00,218.0,WeatherDisplay:10.37,2013-05-12 02:12:00,
2013-05-11 16:17:00,74.6,66.1,29.98,NNW,344,11.5,11.5,75,0.00,BKN,,0.00,246.0,WeatherDisplay:10.37,2013-05-12 02:17:00,
2013-05-11 16:22:00,74.4,66.3,29.98,NNW,329,15.0,15.0,76,0.00,BKN,,0.00,251.0,WeatherDisplay:10.37,2013-05-12 02:22:00,
2013-05-11 16:27:00,74.2,66.1,29.97,East,92,11.5,11.5,76,0.00,CLR,,0.00,410.0,WeatherDisplay:10.37,2013-05-12 02:27:00,
2013-05-11 16:32:00,74.0,66.0,29.97,NE,49,16.1,16.1,76,0.00,BKN,,0.00,156.0,WeatherDisplay:10.37,2013-05-12 02:32:00,
2013-05-11 16:37:00,73.7,66.0,29.98,NE,49,9.2,9.2,77,0.00,BKN,,0.00,162.0,WeatherDisplay:10.37,2013-05-12 02:37:00,
2013-05-11 16:42:00,73.3,65.7,29.98,NNE,28,9.2,9.2,77,0.00,BKN,,0.00,151.0,WeatherDisplay:10.37,2013-05-12 02:42:00,
2013-05-11 16:47:00,72.9,65.6,29.98,NNE,30,11.5,11.5,78,0.00,BKN,,0.00,163.0,WeatherDisplay:10.37,2013-05-12 02:47:00,
2013-05-11 16:52:00,72.6,65.3,29.98,ESE,105,12.7,12.7,78,0.00,FEW,,0.00,269.0,WeatherDisplay:10.37,2013-05-12 02:52:00,
2013-05-11 16:57:00,72.5,65.6,29.98,North,360,12.7,12.7,79,0.00,BKN,,0.00,158.0,WeatherDisplay:10.37,2013-05-12 02:57:00,
2013-05-11 17:02:00,72.5,65.6,29.98,North,349,9.2,9.8,79,0.00,BKN,,0.00,432.0,WeatherDisplay:10.37,2013-05-12 03:02:00,
2013-05-11 17:07:00,72.6,65.7,29.98,NNW,342,12.7,12.7,79,0.00,CLR,,0.00,417.0,WeatherDisplay:10.37,2013-05-12 03:07:00,
2013-05-11 17:12:00,72.7,65.4,29.98,NE,44,19.6,19.6,78,0.00,CLR,,0.00,392.0,WeatherDisplay:10.37,2013-05-12 03:12:00,
2013-05-11 17:17:00,72.6,65.3,29.98,North,360,17.3,17.3,78,0.00,CLR,,0.00,380.0,WeatherDisplay:10.37,2013-05-12 03:17:00,
2013-05-11 17:22:00,72.5,65.6,29.98,East,80,13.8,13.8,79,0.00,CLR,,0.00,355.0,WeatherDisplay:10.37,2013-05-12 03:22:00,
2013-05-11 17:27:00,72.4,65.5,29.98,North,5,16.1,16.1,79,0.00,CLR,,0.00,329.0,WeatherDisplay:10.37,2013-05-12 03:27:00,
2013-05-11 17:32:00,72.4,65.5,29.98,East,79,17.3,17.3,79,0.00,CLR,,0.00,311.0,WeatherDisplay:10.37,2013-05-12 03:32:00,
2013-05-11 17:37:00,72.3,65.4,29.99,North,11,18.0,18.0,79,0.00,CLR,,0.00,299.0,WeatherDisplay:10.37,2013-05-12 03:37:00,
2013-05-11 17:42:00,72.2,65.3,29.98,ESE,117,11.5,11.5,79,0.00,CLR,,0.00,265.0,WeatherDisplay:10.37,2013-05-12 03:42:00,
2013-05-11 17:47:00,72.1,65.6,29.98,ENE,65,15.0,15.0,80,0.00,CLR,,0.00,243.0,WeatherDisplay:10.37,2013-05-12 03:47:00,
2013-05-11 17:52:00,72.0,65.5,29.98,NNE,28,16.1,16.1,80,0.00,CLR,,0.00,220.0,WeatherDisplay:10.37,2013-05-12 03:52:00,
2013-05-11 17:57:00,71.7,65.2,29.99,North,9,18.4,18.4,80,0.00,CLR,,0.00,200.0,WeatherDisplay:10.37,2013-05-12 03:57:00,
2013-05-11 18:01:00,71.6,65.1,29.99,NNW,342,19.6,19.6,80,0.00,CLR,,0.00,185.0,WeatherDisplay:10.37,2013-05-12 04:01:00,
2013-05-11 18:06:00,71.3,65.2,29.99,North,350,13.8,13.8,81,0.00,CLR,,0.00,158.0,WeatherDisplay:10.37,2013-05-12 04:06:00,
2013-05-11 18:11:00,71.2,65.1,29.99,NNE,28,11.5,11.5,81,0.00,CLR,,0.00,139.0,WeatherDisplay:10.37,2013-05-12 04:11:00,
2013-05-11 18:16:00,71.0,64.9,29.99,East,80,11.5,11.5,81,0.00,CLR,,0.00,116.0,WeatherDisplay:10.37,2013-05-12 04:16:00,
2013-05-11 18:21:00,70.9,64.8,29.99,NNE,24,11.5,11.5,81,0.00,CLR,,0.00,102.0,WeatherDisplay:10.37,2013-05-12 04:21:00,
2013-05-11 18:26:00,70.7,64.9,30.00,NNE,31,15.0,15.0,82,0.00,BKN,,0.00,30.0,WeatherDisplay:10.37,2013-05-12 04:26:00,
2013-05-11 18:31:00,70.4,64.6,30.00,NNE,21,13.8,13.8,82,0.00,BKN,,0.00,26.0,WeatherDisplay:10.37,2013-05-12 04:31:00,
2013-05-11 18:36:00,70.2,64.8,29.99,NE,40,11.5,11.5,83,0.00,BKN,,0.00,25.0,WeatherDisplay:10.37,2013-05-12 04:36:00,
2013-05-11 18:41:00,70.0,64.6,30.00,NNE,22,10.4,10.4,83,0.00,BKN,,0.00,18.0,WeatherDisplay:10.37,2013-05-12 04:41:00,
2013-05-11 18:46:00,69.8,64.7,30.00,NE,36,10.4,10.4,84,0.00,SCT,,0.00,18.0,WeatherDisplay:10.37,2013-05-12 04:46:00,
2013-05-11 18:51:00,69.8,64.7,30.00,NE,51,11.5,11.5,84,0.00,FEW,,0.00,14.0,WeatherDisplay:10.37,2013-05-12 04:51:00,
2013-05-11 18:56:00,69.7,64.6,30.01,NNW,344,11.5,11.5,84,0.00,CLR,,0.00,12.0,WeatherDisplay:10.37,2013-05-12 04:56:00,
2013-05-11 19:01:00,69.6,64.5,30.01,North,11,14.0,14.0,84,0.00,CLR,,0.00,5.0,WeatherDisplay:10.37,2013-05-12 05:01:00,
2013-05-11 19:06:00,69.6,64.5,30.01,ENE,66,12.7,12.7,84,0.00,CLR,,0.00,0.0,WeatherDisplay:10.37,2013-05-12 05:06:00,
2013-05-11 19:11:00,69.4,64.4,30.01,NNE,15,9.2,9.2,84,0.00,CLR,,0.00,0.0,WeatherDisplay:10.37,2013-05-12 05:11:00,
2013-05-11 19:16:00,69.3,64.6,30.02,North,9,11.5,11.5,85,0.00,CLR,,0.00,0.0,WeatherDisplay:10.37,2013-05-12 05:16:00,
2013-05-11 19:21:00,69.2,64.5,30.02,NE,48,13.8,13.8,85,0.00,CLR,,0.00,0.0,WeatherDisplay:10.37,2013-05-12 05:21:00,
2013-05-11 19:26:00,69.2,64.5,30.01,North,349,6.9,6.9,85,0.00,CLR,,0.00,0.0,WeatherDisplay:10.37,2013-05-12 05:26:00,
2013-05-11 19:31:00,69.2,64.5,30.02,NE,36,11.5,11.5,85,0.00,CLR,,0.00,0.0,WeatherDisplay:10.37,2013-05-12 05:31:00,
2013-05-11 19:36:00,69.1,64.4,30.02,NE,45,10.4,10.4,85,0.00,CLR,,0.00,0.0,WeatherDisplay:10.37,2013-05-12 05:36:00,
2013-05-11 19:41:00,69.0,64.6,30.02,NNE,30,14.0,14.0,86,0.00,CLR,,0.00,0.0,WeatherDisplay:10.37,2013-05-12 05:41:00,
2013-05-11 19:46:00,69.0,64.6,30.02,NE,42,9.2,9.2,86,0.00,CLR,,0.00,0.0,WeatherDisplay:10.37,2013-05-12 05:46:00,
2013-05-11 19:51:00,68.9,64.5,30.03,NNE,24,15.0,15.0,86,0.00,CLR,,0.00,0.0,WeatherDisplay:10.37,2013-05-12 05:51:00,
2013-05-11 19:56:00,68.9,64.5,30.03,NNE,13,11.5,11.5,86,0.00,CLR,,0.00,0.0,WeatherDisplay:10.37,2013-05-12 05:56:00,
2013-05-11 20:01:00,68.8,64.4,30.03,ENE,58,10.4,10.4,86,0.00,CLR,,0.00,0.0,WeatherDisplay:10.37,2013-05-12 06:01:00,
2013-05-11 20:06:00,68.7,64.3,30.04,ENE,76,11.5,11.5,86,0.00,CLR,,0.00,0.0,WeatherDisplay:10.37,2013-05-12 06:06:00,
2013-05-11 20:11:00,68.6,64.2,30.04,ENE,62,11.5,11.5,86,0.00,CLR,,0.00,0.0,WeatherDisplay:10.37,2013-05-12 06:11:00,
2013-05-11 20:16:00,68.6,64.2,30.04,NE,35,12.7,12.7,86,0.00,CLR,,0.00,0.0,WeatherDisplay:10.37,2013-05-12 06:16:00,
2013-05-11 20:21:00,68.5,64.1,30.04,NE,44,16.1,16.1,86,0.00,CLR,,0.00,0.0,WeatherDisplay:10.37,2013-05-12 06:21:00,
2013-05-11 20:26:00,68.5,64.1,30.04,ENE,60,10.4,10.4,86,0.00,CLR,,0.00,0.0,WeatherDisplay:10.37,2013-05-12 06:26:00,
2013-05-11 20:31:00,68.5,64.1,30.04,East,79,11.5,11.5,86,0.00,CLR,,0.00,0.0,WeatherDisplay:10.37,2013-05-12 06:31:00,
2013-05-11 20:36:00,68.5,64.1,30.04,NNE,26,11.5,11.5,86,0.00,CLR,,0.00,0.0,WeatherDisplay:10.37,2013-05-12 06:36:00,
2013-05-11 20:41:00,68.4,64.0,30.04,ENE,57,12.7,12.7,86,0.00,CLR,,0.00,0.0,WeatherDisplay:10.37,2013-05-12 06:41:00,
2013-05-11 20:46:00,68.3,63.9,30.04,NNE,26,13.8,13.8,86,0.00,CLR,,0.00,0.0,WeatherDisplay:10.37,2013-05-12 06:46:00,
2013-05-11 20:51:00,68.3,63.9,30.05,North,351,10.4,10.4,86,0.00,CLR,,0.00,0.0,WeatherDisplay:10.37,2013-05-12 06:51:00,
2013-05-11 20:56:00,68.3,63.9,30.05,NE,48,13.8,13.8,86,0.00,CLR,,0.00,0.0,WeatherDisplay:10.37,2013-05-12 06:56:00,
2013-05-11 21:01:00,68.3,63.9,30.05,NNW,329,11.5,11.5,86,0.00,CLR,,0.00,0.0,WeatherDisplay:10.37,2013-05-12 07:01:00,
2013-05-11 21:06:00,68.3,63.9,30.05,North,355,11.5,11.5,86,0.00,CLR,,0.00,0.0,WeatherDisplay:10.37,2013-05-12 07:06:00,
2013-05-11 21:11:00,68.3,63.9,30.05,NW,323,13.8,13.8,86,0.00,CLR,,0.00,0.0,WeatherDisplay:10.37,2013-05-12 07:11:00,
2013-05-11 21:16:00,68.2,63.9,30.06,NE,45,12.7,12.7,86,0.00,CLR,,0.00,0.0,WeatherDisplay:10.37,2013-05-12 07:16:00,
2013-05-11 21:21:00,68.3,63.9,30.06,NE,48,13.0,13.0,86,0.00,CLR,,0.00,0.0,WeatherDisplay:10.37,2013-05-12 07:21:00,
2013-05-11 21:26:00,68.2,63.9,30.06,NNE,30,13.0,13.0,86,0.00,CLR,,0.00,0.0,WeatherDisplay:10.37,2013-05-12 07:26:00,
2013-05-11 21:31:00,68.2,63.9,30.06,NNW,335,11.5,11.5,86,0.00,CLR,,0.00,0.0,WeatherDisplay:10.37,2013-05-12 07:31:00,
2013-05-11 21:36:00,68.2,63.9,30.06,NNW,331,15.0,15.0,86,0.00,CLR,,0.00,0.0,WeatherDisplay:10.37,2013-05-12 07:36:00,
2013-05-11 21:41:00,68.2,63.9,30.06,ENE,69,12.7,12.7,86,0.00,CLR,,0.00,0.0,WeatherDisplay:10.37,2013-05-12 07:41:00,
2013-05-11 21:46:00,68.1,63.8,30.06,NNW,338,12.7,12.7,86,0.00,CLR,,0.00,0.0,WeatherDisplay:10.37,2013-05-12 07:46:00,
2013-05-11 21:51:00,68.1,63.8,30.06,NW,318,17.0,17.0,86,0.00,CLR,,0.00,0.0,WeatherDisplay:10.37,2013-05-12 07:51:00,
2013-05-11 21:56:00,68.1,63.8,30.06,NNW,344,12.7,12.7,86,0.00,CLR,,0.00,0.0,WeatherDisplay:10.37,2013-05-12 07:56:00,
2013-05-11 22:01:00,68.1,63.4,30.06,NE,42,13.8,13.8,85,0.00,CLR,,0.00,0.0,WeatherDisplay:10.37,2013-05-12 08:01:00,
2013-05-11 22:06:00,68.0,63.3,30.06,NNE,15,16.0,16.0,85,0.00,CLR,,0.00,0.0,WeatherDisplay:10.37,2013-05-12 08:06:00,
2013-05-11 22:11:00,68.0,63.3,30.06,NE,42,13.8,13.8,85,0.00,CLR,,0.00,0.0,WeatherDisplay:10.37,2013-05-12 08:11:00,
2013-05-11 22:16:00,68.0,63.3,30.06,North,355,15.0,15.0,85,0.00,CLR,,0.00,0.0,WeatherDisplay:10.37,2013-05-12 08:16:00,
2013-05-11 22:21:00,68.0,63.3,30.06,NNE,19,12.0,12.0,85,0.00,CLR,,0.00,0.0,WeatherDisplay:10.37,2013-05-12 08:21:00,
2013-05-11 22:26:00,68.1,63.4,30.06,NNE,26,12.7,12.7,85,0.00,CLR,,0.00,0.0,WeatherDisplay:10.37,2013-05-12 08:26:00,
2013-05-11 22:31:00,68.1,63.4,30.06,ENE,59,11.5,11.5,85,0.00,CLR,,0.00,0.0,WeatherDisplay:10.37,2013-05-12 08:31:00,
2013-05-11 22:36:00,68.1,63.1,30.06,NE,40,14.0,14.0,84,0.00,CLR,,0.00,0.0,WeatherDisplay:10.37,2013-05-12 08:36:00,
2013-05-11 22:41:00,68.1,63.1,30.06,NE,49,12.7,12.7,84,0.00,CLR,,0.00,0.0,WeatherDisplay:10.37,2013-05-12 08:41:00,
2013-05-11 22:46:00,68.1,63.1,30.06,NNW,339,11.5,11.5,84,0.00,CLR,,0.00,0.0,WeatherDisplay:10.37,2013-05-12 08:46:00,
2013-05-11 22:51:00,68.1,63.1,30.06,East,86,16.1,16.1,84,0.00,CLR,,0.00,0.0,WeatherDisplay:10.37,2013-05-12 08:51:00,
2013-05-11 22:56:00,68.1,63.1,30.06,NE,36,21.9,21.9,84,0.00,CLR,,0.00,0.0,WeatherDisplay:10.37,2013-05-12 08:56:00,
2013-05-11 23:01:00,68.1,63.1,30.06,NNW,328,17.3,17.3,84,0.00,CLR,,0.00,0.0,WeatherDisplay:10.37,2013-05-12 09:01:00,
2013-05-11 23:06:00,68.1,63.1,30.06,North,10,16.1,16.1,84,0.00,CLR,,0.00,0.0,WeatherDisplay:10.37,2013-05-12 09:06:00,
2013-05-11 23:11:00,68.1,63.1,30.06,ENE,72,13.8,13.8,84,0.00,CLR,,0.00,0.0,WeatherDisplay:10.37,2013-05-12 09:11:00,
2013-05-11 23:16:00,68.1,63.1,30.05,North,360,13.8,13.8,84,0.00,CLR,,0.00,0.0,WeatherDisplay:10.37,2013-05-12 09:16:00,
2013-05-11 23:21:00,68.1,63.1,30.05,NNE,12,15.0,15.0,84,0.00,CLR,,0.00,0.0,WeatherDisplay:10.37,2013-05-12 09:21:00,
2013-05-11 23:26:00,68.1,63.1,30.05,NNE,30,15.0,15.0,84,0.00,CLR,,0.00,0.0,WeatherDisplay:10.37,2013-05-12 09:26:00,
2013-05-11 23:31:00,68.1,63.1,30.05,North,351,17.3,17.3,84,0.00,CLR,,0.00,0.0,WeatherDisplay:10.37,2013-05-12 09:31:00,
2013-05-11 23:36:00,68.1,63.1,30.05,NNE,26,11.5,11.5,84,0.00,CLR,,0.00,0.0,WeatherDisplay:10.37,2013-05-12 09:36:00,
2013-05-11 23:41:00,68.1,63.1,30.05,NE,43,15.0,15.0,84,0.00,CLR,,0.00,0.0,WeatherDisplay:10.37,2013-05-12 09:41:00,
2013-05-11 23:46:00,68.0,63.0,30.05,NNE,19,16.1,16.1,84,0.00,CLR,,0.00,0.0,WeatherDisplay:10.37,2013-05-12 09:46:00,
2013-05-11 23:51:00,68.0,63.0,30.05,ENE,76,15.0,15.0,84,0.00,CLR,,0.00,0.0,WeatherDisplay:10.37,2013-05-12 09:51:00,
2013-05-11 23:56:00,68.0,63.0,30.05,NNE,32,11.5,11.5,84,0.00,CLR,,0.00,0.0,WeatherDisplay:10.37,2013-05-12 09:56:00,